Terminal Aerodrome Forecast
Issued by NWS

Home | Current Version | Previous Version | Text Only | Print | Product List | Glossary On
Versions: 1 2 3 4 5 6 7 8 9 10 11 12
000
FTUS44 KTSA 011120
TAFFYV
TAF
KFYV 011120Z 0112/0212 22007KT P6SM BKN120
     FM011500 21012G18KT P6SM BKN150 PROB30 0121/0201 -TSRA BKN050CB
     FM020100 19011KT P6SM BKN100 PROB30 0201/0206 -TSRA BKN050CB=

USA.gov is the U.S. government's official web portal to all federal, state and local government web resources and services.